Time;durP1;ratioP1;P1;durP2;ratioP2;P2;SDS_P1;SDS_P2;PMS_P1;PMS_P2;Temp;Humidity;BMP_temperature;BMP_pressure;BME280_temperature;BME280_humidity;BME280_pressure;Samples;Min_cycle;Max_cycle;Signal;HPM_P1;HPM_P2
2022/04/10 00:01:44;;;;;;;2.15;1.15;;;19.50;45.50;;;;;;6198635;28;20053;-67
2022/04/10 00:04:45;;;;;;;2.60;1.25;;;19.50;45.40;;;;;;6198810;28;20698;-66
2022/04/10 00:07:45;;;;;;;1.55;0.80;;;19.50;45.50;;;;;;6197660;28;20084;-66
2022/04/10 00:10:46;;;;;;;2.17;1.10;;;19.50;45.50;;;;;;6197874;28;20080;-66
2022/04/10 00:13:46;;;;;;;2.85;1.10;;;19.50;45.60;;;;;;6198105;28;20041;-66
2022/04/10 00:16:47;;;;;;;1.52;0.90;;;19.50;45.50;;;;;;6198320;28;20042;-66
2022/04/10 00:19:47;;;;;;;1.33;1.00;;;19.50;45.50;;;;;;6198364;28;20045;-66
2022/04/10 00:22:49;;;;;;;1.88;1.05;;;19.50;45.40;;;;;;6198195;28;20385;-66
2022/04/10 00:25:49;;;;;;;2.03;0.98;;;19.50;45.60;;;;;;6197979;28;20470;-66
2022/04/10 00:28:51;;;;;;;2.17;1.25;;;19.50;45.30;;;;;;6197912;28;20058;-66
2022/04/10 00:31:53;;;;;;;1.95;1.00;;;19.50;45.30;;;;;;6197924;28;20050;-66
2022/04/10 00:34:54;;;;;;;1.95;1.17;;;19.50;45.30;;;;;;6197988;28;20037;-66
2022/04/10 00:37:55;;;;;;;1.58;0.90;;;19.50;45.40;;;;;;6198015;28;20040;-66
2022/04/10 00:40:55;;;;;;;1.80;0.90;;;19.50;45.40;;;;;;6197583;28;20437;-66
2022/04/10 00:44:10;;;;;;;1.98;0.90;;;19.50;45.50;;;;;;6197507;28;20638;-66
2022/04/10 00:47:11;;;;;;;2.08;1.08;;;19.50;45.60;;;;;;6197727;28;20117;-66
2022/04/10 00:50:13;;;;;;;1.73;1.13;;;19.50;45.60;;;;;;6197779;28;20080;-66
2022/04/10 00:53:14;;;;;;;1.35;0.93;;;19.50;45.60;;;;;;6197548;28;20034;-66
2022/04/10 00:56:15;;;;;;;1.23;1.00;;;19.50;45.60;;;;;;6197270;28;20042;-66
2022/04/10 00:59:15;;;;;;;2.15;1.05;;;19.40;45.50;;;;;;6197234;28;20030;-66
2022/04/10 01:02:16;;;;;;;2.25;0.90;;;19.40;45.50;;;;;;6196884;28;20034;-66
2022/04/10 01:05:17;;;;;;;2.92;1.10;;;19.40;45.40;;;;;;6197017;28;20030;-66
2022/04/10 01:08:18;;;;;;;1.20;0.77;;;19.50;45.70;;;;;;6197276;28;20018;-66
2022/04/10 01:11:19;;;;;;;1.52;0.82;;;19.40;45.50;;;;;;6196667;28;20069;-66
2022/04/10 01:14:20;;;;;;;2.35;0.95;;;19.50;45.50;;;;;;6196774;28;20022;-66
2022/04/10 01:17:21;;;;;;;1.85;1.00;;;19.40;45.50;;;;;;6196752;28;20034;-66
2022/04/10 01:20:22;;;;;;;1.25;0.80;;;19.50;45.60;;;;;;6196938;28;20026;-66
2022/04/10 01:23:23;;;;;;;1.83;0.73;;;19.40;45.30;;;;;;6196330;28;20637;-66
2022/04/10 01:26:27;;;;;;;1.27;0.68;;;19.50;45.30;;;;;;6196795;28;20022;-67
2022/04/10 01:29:28;;;;;;;1.40;0.73;;;19.40;45.30;;;;;;6196199;28;20150;-66
2022/04/10 01:32:29;;;;;;;0.93;0.73;;;19.40;45.60;;;;;;6196479;28;20029;-66
2022/04/10 01:35:31;;;;;;;1.63;0.90;;;19.40;45.60;;;;;;6196450;28;20041;-66
2022/04/10 01:38:32;;;;;;;1.40;0.85;;;19.40;45.40;;;;;;6196519;28;20494;-66
2022/04/10 01:41:36;;;;;;;1.30;0.80;;;19.40;45.40;;;;;;6196095;28;20497;-66
2022/04/10 01:44:41;;;;;;;0.90;0.57;;;19.40;45.60;;;;;;6196257;28;20018;-66
2022/04/10 01:47:42;;;;;;;1.27;0.90;;;19.40;45.50;;;;;;6196272;28;20024;-66
2022/04/10 01:50:42;;;;;;;1.30;0.80;;;19.40;45.60;;;;;;6196157;28;20022;-66
2022/04/10 01:53:43;;;;;;;1.52;0.70;;;19.40;45.60;;;;;;6196019;28;20038;-66
2022/04/10 01:56:44;;;;;;;1.10;0.65;;;19.40;45.40;;;;;;6195963;28;20053;-66
2022/04/10 01:59:44;;;;;;;1.45;0.80;;;19.40;45.60;;;;;;6195488;28;20109;-66
2022/04/10 02:02:45;;;;;;;1.20;0.60;;;19.40;45.40;;;;;;6195921;28;20068;-66
2022/04/10 02:05:45;;;;;;;1.33;0.90;;;19.40;45.60;;;;;;6195904;28;20026;-66
2022/04/10 02:08:46;;;;;;;1.00;0.60;;;19.40;45.60;;;;;;6195984;28;20096;-66
2022/04/10 02:11:46;;;;;;;1.02;0.70;;;19.40;45.60;;;;;;6195886;28;20022;-66
2022/04/10 02:14:47;;;;;;;1.00;0.65;;;19.40;45.60;;;;;;6195721;28;20095;-66
2022/04/10 02:17:47;;;;;;;0.95;0.70;;;19.40;45.60;;;;;;6195430;28;20069;-66
2022/04/10 02:20:48;;;;;;;1.10;0.70;;;19.40;45.60;;;;;;6195869;28;20038;-66
2022/04/10 02:23:48;;;;;;;1.25;0.55;;;19.40;45.60;;;;;;6195196;28;20061;-66
2022/04/10 02:26:49;;;;;;;1.65;0.70;;;19.40;45.60;;;;;;6195472;28;20050;-66
2022/04/10 02:29:49;;;;;;;0.90;0.65;;;19.40;46.30;;;;;;6195098;28;20047;-66
2022/04/10 02:32:50;;;;;;;1.05;0.60;;;19.40;45.30;;;;;;6195449;28;20064;-66
2022/04/10 02:35:50;;;;;;;1.13;0.70;;;19.40;45.60;;;;;;6195466;28;20022;-66
2022/04/10 02:38:51;;;;;;;1.17;0.70;;;19.40;45.60;;;;;;6195339;28;20045;-67
2022/04/10 02:41:51;;;;;;;1.25;0.80;;;19.40;45.50;;;;;;6195553;28;20023;-66
2022/04/10 02:44:52;;;;;;;1.45;0.70;;;19.40;45.60;;;;;;6195262;28;20299;-66
2022/04/10 02:47:52;;;;;;;1.33;0.68;;;19.40;45.70;;;;;;6195236;28;20042;-66
2022/04/10 02:50:53;;;;;;;0.82;0.60;;;19.40;45.60;;;;;;6195163;28;20084;-66
2022/04/10 02:53:53;;;;;;;0.93;0.60;;;19.40;45.60;;;;;;6195357;28;20025;-66
2022/04/10 02:56:54;;;;;;;1.10;0.63;;;19.40;45.60;;;;;;6195203;28;20536;-66
2022/04/10 02:59:54;;;;;;;1.25;0.82;;;19.40;45.60;;;;;;6195162;28;20034;-67
2022/04/10 03:02:55;;;;;;;0.52;0.40;;;19.40;45.60;;;;;;6194997;28;20030;-66
2022/04/10 03:05:56;;;;;;;1.50;0.70;;;19.40;45.60;;;;;;6195257;28;20034;-66
2022/04/10 03:08:56;;;;;;;1.20;0.70;;;19.40;45.60;;;;;;6195031;28;20077;-66
2022/04/10 03:11:57;;;;;;;0.85;0.50;;;19.40;45.60;;;;;;6196839;28;20030;-66
2022/04/10 03:14:57;;;;;;;1.40;0.73;;;19.40;45.60;;;;;;6199587;28;20030;-66
2022/04/10 03:17:57;;;;;;;1.05;0.52;;;19.40;45.60;;;;;;6199635;28;20026;-66
2022/04/10 03:20:58;;;;;;;2.13;0.60;;;19.40;45.60;;;;;;6199822;28;20030;-66
2022/04/10 03:23:59;;;;;;;0.95;0.70;;;19.40;45.50;;;;;;6199450;28;20030;-66
2022/04/10 03:26:59;;;;;;;1.08;0.65;;;19.40;45.40;;;;;;6199204;28;20034;-66
2022/04/10 03:30:00;;;;;;;1.40;0.70;;;19.40;45.10;;;;;;6198938;28;20062;-66
2022/04/10 03:33:00;;;;;;;1.38;0.80;;;19.40;45.40;;;;;;6199212;28;20033;-67
2022/04/10 03:36:01;;;;;;;0.77;0.60;;;19.40;45.30;;;;;;6199480;28;20033;-66
2022/04/10 03:39:01;;;;;;;1.27;0.63;;;19.40;45.10;;;;;;6198253;28;20116;-66
2022/04/10 03:42:02;;;;;;;0.82;0.55;;;19.40;45.40;;;;;;6199127;28;20037;-66
2022/04/10 03:45:03;;;;;;;1.02;0.52;;;19.40;45.10;;;;;;6197958;28;20034;-66
2022/04/10 03:48:04;;;;;;;1.17;0.68;;;19.40;45.30;;;;;;6198368;28;20026;-66
2022/04/10 03:51:05;;;;;;;1.95;0.70;;;19.40;45.20;;;;;;6198289;28;20049;-66
2022/04/10 03:54:06;;;;;;;0.93;0.47;;;19.40;45.40;;;;;;6198382;28;20019;-66
2022/04/10 03:57:06;;;;;;;2.55;0.65;;;19.40;45.60;;;;;;6197954;28;20028;-67
2022/04/10 04:00:07;;;;;;;1.55;0.70;;;19.40;45.50;;;;;;6197323;28;20026;-66
2022/04/10 04:03:08;;;;;;;0.77;0.45;;;19.40;45.70;;;;;;6197920;28;20363;-67
2022/04/10 04:06:08;;;;;;;0.70;0.40;;;19.40;45.60;;;;;;6197744;28;20027;-66
2022/04/10 04:09:08;;;;;;;0.75;0.50;;;19.40;45.60;;;;;;6197890;28;20485;-66
2022/04/10 04:12:09;;;;;;;1.38;0.60;;;19.40;45.40;;;;;;6198445;28;20084;-67
2022/04/10 04:15:11;;;;;;;0.68;0.50;;;19.40;45.60;;;;;;6197913;28;20106;-66
2022/04/10 04:18:11;;;;;;;1.10;0.60;;;19.40;45.60;;;;;;6198094;28;20078;-67
2022/04/10 04:21:12;;;;;;;1.13;0.57;;;19.40;45.50;;;;;;6198201;28;20119;-66
2022/04/10 04:24:12;;;;;;;1.23;0.60;;;19.40;45.40;;;;;;6198117;28;20034;-67
2022/04/10 04:27:13;;;;;;;0.70;0.40;;;19.40;45.10;;;;;;6197670;28;20105;-67
2022/04/10 04:30:13;;;;;;;0.63;0.40;;;19.40;45.50;;;;;;6197602;28;20053;-67
2022/04/10 04:33:16;;;;;;;1.48;0.40;;;19.40;45.40;;;;;;6197824;28;20691;-67
2022/04/10 04:36:17;;;;;;;0.82;0.40;;;19.40;45.60;;;;;;6198245;28;20030;-67
2022/04/10 04:39:18;;;;;;;1.55;0.70;;;19.40;45.40;;;;;;6197570;28;20038;-67
2022/04/10 04:42:18;;;;;;;0.80;0.50;;;19.40;45.10;;;;;;6197873;28;20033;-67
2022/04/10 04:45:19;;;;;;;0.80;0.45;;;19.40;45.40;;;;;;6197553;28;20030;-67
2022/04/10 04:48:19;;;;;;;0.70;0.50;;;19.40;45.20;;;;;;6197467;28;20034;-66
2022/04/10 04:51:20;;;;;;;0.73;0.45;;;19.40;45.50;;;;;;6197388;28;20527;-66
2022/04/10 04:54:21;;;;;;;0.63;0.50;;;19.40;45.40;;;;;;6197580;28;20022;-66
2022/04/10 04:57:22;;;;;;;0.95;0.60;;;19.40;45.50;;;;;;6197373;28;20041;-67
2022/04/10 05:00:38;;;;;;;1.13;0.50;;;19.40;45.40;;;;;;6197081;28;20039;-66
2022/04/10 05:03:38;;;;;;;1.50;0.80;;;19.40;45.60;;;;;;6173922;28;20683;-66
2022/04/10 05:06:39;;;;;;;1.92;0.63;;;19.40;45.30;;;;;;6173100;28;20054;-66
2022/04/10 05:09:39;;;;;;;0.93;0.40;;;19.40;45.60;;;;;;6173233;28;20086;-66
2022/04/10 05:12:40;;;;;;;0.80;0.50;;;19.40;45.30;;;;;;6172739;28;20054;-66
2022/04/10 05:15:40;;;;;;;0.57;0.50;;;19.40;45.30;;;;;;6173027;28;20035;-66
2022/04/10 05:18:41;;;;;;;0.52;0.40;;;19.40;45.30;;;;;;6172925;28;20030;-66
2022/04/10 05:21:42;;;;;;;0.85;0.47;;;19.40;45.40;;;;;;6172830;28;20031;-67
2022/04/10 05:24:42;;;;;;;1.15;0.70;;;19.40;45.50;;;;;;6172711;28;20050;-66
2022/04/10 05:27:42;;;;;;;0.60;0.40;;;19.40;45.10;;;;;;6172635;28;20502;-67
2022/04/10 05:30:44;;;;;;;1.08;0.50;;;19.40;45.30;;;;;;6186370;28;20042;-66
2022/04/10 05:33:44;;;;;;;1.42;0.60;;;19.40;45.50;;;;;;6196239;28;20027;-66
2022/04/10 05:36:45;;;;;;;1.17;0.65;;;19.40;45.40;;;;;;6196148;28;20019;-67
2022/04/10 05:39:45;;;;;;;1.38;0.60;;;19.40;45.30;;;;;;6196460;28;20023;-67
2022/04/10 05:42:46;;;;;;;1.23;0.57;;;19.40;45.60;;;;;;6196256;28;20405;-66
2022/04/10 05:45:47;;;;;;;0.90;0.63;;;19.40;45.10;;;;;;6196439;28;20030;-67
2022/04/10 05:48:47;;;;;;;1.17;0.57;;;19.40;45.60;;;;;;6196227;28;20520;-66
2022/04/10 05:51:50;;;;;;;2.08;0.50;;;19.40;45.60;;;;;;6196121;28;20026;-66
2022/04/10 05:54:50;;;;;;;1.38;0.65;;;19.40;45.40;;;;;;6195999;28;20026;-66
2022/04/10 05:57:51;;;;;;;1.80;0.55;;;19.40;45.40;;;;;;6196091;28;20081;-66
2022/04/10 06:00:52;;;;;;;1.40;0.50;;;19.40;45.50;;;;;;6195716;28;20022;-66
2022/04/10 06:03:53;;;;;;;1.02;0.43;;;19.40;45.30;;;;;;6196162;28;20034;-67
2022/04/10 06:06:54;;;;;;;1.40;0.60;;;19.40;45.50;;;;;;6195840;28;20120;-66
2022/04/10 06:09:54;;;;;;;0.80;0.47;;;19.40;45.70;;;;;;6196268;28;20026;-66
2022/04/10 06:12:55;;;;;;;0.93;0.60;;;19.40;45.50;;;;;;6195670;28;20058;-66
2022/04/10 06:15:55;;;;;;;1.40;0.52;;;19.40;45.40;;;;;;6196121;28;20410;-66
2022/04/10 06:18:56;;;;;;;1.15;0.60;;;19.40;45.40;;;;;;6195524;28;20632;-66
2022/04/10 06:21:56;;;;;;;0.75;0.50;;;19.40;45.50;;;;;;6195806;28;20030;-66
2022/04/10 06:24:57;;;;;;;1.83;0.80;;;19.40;45.40;;;;;;6195492;28;20029;-66
2022/04/10 06:27:57;;;;;;;1.55;0.68;;;19.40;45.30;;;;;;6194821;28;20117;-67
2022/04/10 06:30:58;;;;;;;0.47;0.40;;;19.40;45.30;;;;;;6194513;28;20520;-67
2022/04/10 06:33:58;;;;;;;1.60;0.65;;;19.40;45.30;;;;;;6195008;28;20034;-66
2022/04/10 06:36:59;;;;;;;1.45;0.60;;;19.40;45.40;;;;;;6195365;28;20091;-66
2022/04/10 06:39:59;;;;;;;1.25;0.50;;;19.40;45.20;;;;;;6195498;28;20019;-66
2022/04/10 06:43:00;;;;;;;1.58;0.55;;;19.40;45.40;;;;;;6195116;28;20030;-66
2022/04/10 06:46:00;;;;;;;0.90;0.60;;;19.40;45.10;;;;;;6197312;28;20030;-66
2022/04/10 06:49:01;;;;;;;2.05;0.70;;;19.40;45.30;;;;;;6200247;28;20026;-66
2022/04/10 06:52:02;;;;;;;1.08;0.70;;;19.40;45.30;;;;;;6200224;28;20026;-66
2022/04/10 06:55:03;;;;;;;1.75;0.70;;;19.40;45.50;;;;;;6200265;28;20045;-67
2022/04/10 06:58:04;;;;;;;1.00;0.47;;;19.40;45.20;;;;;;6200238;28;20026;-66
2022/04/10 07:01:04;;;;;;;1.90;0.50;;;19.40;45.30;;;;;;6199857;28;20085;-66
2022/04/10 07:04:05;;;;;;;0.80;0.50;;;19.40;45.30;;;;;;6200182;28;20042;-66
2022/04/10 07:07:05;;;;;;;1.60;0.60;;;19.40;45.50;;;;;;6200242;28;20022;-66
2022/04/10 07:10:06;;;;;;;1.45;0.65;;;19.40;45.50;;;;;;6200144;28;20062;-66
2022/04/10 07:13:07;;;;;;;1.70;0.57;;;19.40;45.50;;;;;;6199712;28;20026;-66
2022/04/10 07:16:08;;;;;;;1.42;0.57;;;19.40;45.40;;;;;;6200159;28;20034;-66
2022/04/10 07:19:09;;;;;;;1.27;0.65;;;19.40;45.40;;;;;;6199006;28;20030;-66
2022/04/10 07:25:28;;;;;;;1.27;0.70;;;19.40;45.40;;;;;;6199345;28;20490;-66
2022/04/10 07:28:29;;;;;;;0.80;0.60;;;19.40;45.40;;;;;;6199306;28;20061;-66
2022/04/10 07:31:29;;;;;;;1.83;0.68;;;19.40;45.40;;;;;;6199014;28;20457;-66
2022/04/10 07:34:30;;;;;;;1.98;0.65;;;19.40;45.40;;;;;;6199204;28;20034;-67
2022/04/10 07:37:30;;;;;;;1.17;0.60;;;19.40;45.20;;;;;;6199435;28;20126;-66
2022/04/10 07:40:31;;;;;;;0.57;0.40;;;19.40;45.20;;;;;;6199177;28;20022;-66
2022/04/10 07:43:31;;;;;;;0.70;0.45;;;19.40;45.60;;;;;;6197851;28;20022;-66
2022/04/10 07:49:51;;;;;;;0.52;0.40;;;19.40;45.10;;;;;;6198843;28;20031;-66
2022/04/10 07:52:52;;;;;;;1.60;0.60;;;19.40;45.30;;;;;;6198928;28;20049;-66
2022/04/10 07:55:53;;;;;;;1.13;0.60;;;19.40;45.20;;;;;;6198792;28;20407;-66
2022/04/10 07:58:53;;;;;;;1.10;0.63;;;19.40;45.40;;;;;;6198143;28;20049;-66
2022/04/10 08:01:54;;;;;;;1.52;0.55;;;19.40;45.30;;;;;;6198644;28;20034;-66
2022/04/10 08:04:54;;;;;;;1.65;0.70;;;19.40;45.40;;;;;;6198655;28;20078;-66
2022/04/10 08:07:55;;;;;;;0.73;0.57;;;19.40;45.40;;;;;;6198510;28;20114;-66
2022/04/10 08:10:55;;;;;;;1.67;0.50;;;19.40;45.20;;;;;;6198639;28;20080;-66
2022/04/10 08:13:56;;;;;;;1.15;0.68;;;19.40;45.40;;;;;;6198447;28;20026;-66
2022/04/10 08:16:56;;;;;;;0.93;0.50;;;19.40;45.40;;;;;;6198350;28;20035;-66
2022/04/10 08:19:57;;;;;;;0.90;0.40;;;19.40;45.30;;;;;;6198296;28;20018;-66
2022/04/10 08:22:59;;;;;;;1.27;0.43;;;19.40;45.20;;;;;;6198548;28;20041;-66
2022/04/10 08:26:00;;;;;;;0.82;0.40;;;19.40;45.50;;;;;;6197957;28;20031;-66
2022/04/10 08:29:00;;;;;;;1.30;0.68;;;19.40;45.70;;;;;;6197595;28;20520;-66
2022/04/10 08:32:01;;;;;;;1.05;0.55;;;19.40;45.40;;;;;;6196718;28;20030;-66
2022/04/10 08:35:02;;;;;;;1.05;0.60;;;19.40;45.40;;;;;;6198023;28;20030;-66
2022/04/10 08:38:03;;;;;;;1.55;0.60;;;19.40;45.20;;;;;;6198105;28;20081;-66
2022/04/10 08:41:06;;;;;;;1.35;0.50;;;19.40;45.30;;;;;;6197899;28;20481;-66
2022/04/10 08:44:07;;;;;;;0.75;0.50;;;19.40;45.40;;;;;;6197574;28;20050;-66
2022/04/10 08:47:07;;;;;;;1.77;0.47;;;19.40;45.40;;;;;;6197740;28;20515;-66
2022/04/10 08:50:09;;;;;;;0.70;0.50;;;19.40;45.60;;;;;;6197508;28;20026;-66
2022/04/10 08:53:10;;;;;;;1.27;0.55;;;19.40;45.50;;;;;;6197718;28;20026;-66
2022/04/10 08:56:11;;;;;;;2.10;0.63;;;19.40;45.30;;;;;;6197233;28;20076;-66
2022/04/10 08:59:11;;;;;;;1.17;0.50;;;19.40;45.50;;;;;;6198723;28;20555;-66
2022/04/10 09:02:15;;;;;;;1.30;0.52;;;19.40;45.40;;;;;;6196875;28;20030;-66
2022/04/10 09:05:21;;;;;;;1.90;0.50;;;19.40;45.90;;;;;;6197207;28;20068;-66
2022/04/10 09:08:23;;;;;;;0.60;0.40;;;19.40;45.50;;;;;;6196610;28;20034;-66
2022/04/10 09:11:29;;;;;;;1.65;0.68;;;19.40;45.40;;;;;;6196566;28;20036;-66
2022/04/10 09:14:41;;;;;;;0.95;0.50;;;19.40;45.50;;;;;;6197103;28;20049;-66
2022/04/10 09:17:53;;;;;;;1.27;0.60;;;19.40;45.50;;;;;;6196772;28;20150;-66
2022/04/10 09:21:07;;;;;;;0.57;0.40;;;19.40;45.50;;;;;;6196881;28;20030;-66
2022/04/10 09:24:10;;;;;;;0.88;0.52;;;19.40;44.90;;;;;;6196902;28;20023;-66
2022/04/10 09:27:10;;;;;;;0.52;0.32;;;19.40;45.50;;;;;;6196408;28;20026;-67
2022/04/10 09:30:18;;;;;;;1.58;0.60;;;19.40;45.30;;;;;;6196140;28;20072;-66
2022/04/10 09:33:19;;;;;;;1.05;0.43;;;19.40;46.10;;;;;;6196829;28;20026;-66
2022/04/10 09:36:37;;;;;;;1.98;0.50;;;19.40;45.40;;;;;;6196498;28;20442;-66
2022/04/10 09:39:37;;;;;;;1.48;0.63;;;19.40;45.30;;;;;;6196358;28;20085;-66
2022/04/10 09:42:40;;;;;;;4.30;0.60;;;19.40;45.40;;;;;;6196112;28;20096;-66
2022/04/10 09:45:45;;;;;;;1.30;0.50;;;19.40;45.40;;;;;;6196662;28;20536;-66
2022/04/10 09:48:46;;;;;;;;;;;19.40;45.40;;;;;;6196659;28;20480;-66
2022/04/10 09:52:00;;;;;;;1.27;0.45;;;19.40;45.30;;;;;;6196192;28;19905;-66
2022/04/10 09:55:00;;;;;;;1.35;0.60;;;19.40;45.30;;;;;;6196352;28;20034;-66
2022/04/10 09:58:06;;;;;;;1.38;0.60;;;19.40;45.30;;;;;;6195375;28;20065;-66
2022/04/10 10:01:11;;;;;;;1.42;0.60;;;19.40;45.40;;;;;;6195771;28;20106;-66
2022/04/10 10:04:12;;;;;;;2.20;0.70;;;19.40;45.40;;;;;;6196193;28;20026;-66
2022/04/10 10:07:19;;;;;;;1.65;0.68;;;19.40;45.20;;;;;;6195659;28;20033;-66
2022/04/10 10:10:21;;;;;;;1.40;0.70;;;19.40;45.40;;;;;;6195926;28;20105;-66
2022/04/10 10:13:26;;;;;;;1.30;0.60;;;19.40;45.40;;;;;;6196950;28;20674;-66
2022/04/10 10:16:27;;;;;;;1.35;0.68;;;19.40;45.40;;;;;;6195837;28;20034;-66
2022/04/10 10:19:34;;;;;;;1.55;0.57;;;19.40;45.30;;;;;;6195716;28;20062;-67
2022/04/10 10:22:34;;;;;;;1.17;0.50;;;19.40;45.20;;;;;;6188441;28;20049;-67
2022/04/10 10:25:46;;;;;;;2.95;0.85;;;19.40;45.30;;;;;;6189336;28;20477;-66
2022/04/10 10:29:08;;;;;;;3.03;0.80;;;19.40;45.50;;;;;;6190280;28;20042;-66
2022/04/10 10:32:39;;;;;;;2.33;0.65;;;19.40;44.80;;;;;;6192714;28;20035;-67
2022/04/10 10:35:48;;;;;;;11.90;0.90;;;19.40;44.90;;;;;;6192439;28;20042;-67
2022/04/10 10:38:54;;;;;;;4.60;0.95;;;19.50;44.90;;;;;;6192631;28;20524;-66
2022/04/10 10:42:08;;;;;;;1.50;0.82;;;19.50;45.20;;;;;;6192715;28;20367;-67
2022/04/10 10:45:09;;;;;;;1.42;0.60;;;19.40;45.10;;;;;;6193548;28;20033;-66
2022/04/10 10:48:26;;;;;;;3.70;1.05;;;19.40;45.20;;;;;;6193338;28;20022;-66
2022/04/10 10:51:26;;;;;;;1.88;0.80;;;19.40;45.20;;;;;;6192969;28;20026;-66
2022/04/10 10:54:45;;;;;;;1.95;0.80;;;19.40;45.20;;;;;;6193029;28;20064;-67
2022/04/10 10:57:45;;;;;;;1.23;0.70;;;19.50;45.20;;;;;;6191426;28;20035;-66
2022/04/10 11:00:51;;;;;;;5.50;1.00;;;19.50;45.30;;;;;;6193117;28;20018;-67
2022/04/10 11:03:59;;;;;;;3.42;1.00;;;19.40;45.20;;;;;;6193828;28;20027;-66
2022/04/10 11:07:11;;;;;;;1.27;0.60;;;19.50;45.40;;;;;;6193452;28;20104;-67
2022/04/10 11:10:12;;;;;;;2.83;0.70;;;19.50;45.40;;;;;;6193194;28;20648;-67
2022/04/10 11:13:14;;;;;;;8.93;0.90;;;19.50;45.60;;;;;;6191442;28;20084;-66
2022/04/10 11:16:14;;;;;;;4.95;1.13;;;19.50;45.50;;;;;;6193179;28;20033;-67
2022/04/10 11:19:15;;;;;;;3.60;1.00;;;19.50;45.40;;;;;;6194859;28;20042;-67
2022/04/10 11:22:22;;;;;;;6.80;0.93;;;19.50;46.20;;;;;;6216678;28;20029;-67
2022/04/10 11:25:31;;;;;;;2.22;0.90;;;19.50;45.20;;;;;;6203074;28;20025;-66
2022/04/10 11:28:56;;;;;;;3.75;1.02;;;19.60;45.60;;;;;;6197240;28;20046;-67
2022/04/10 11:32:04;;;;;;;2.85;1.13;;;19.70;46.20;;;;;;6191724;28;20034;-68
2022/04/10 11:35:12;;;;;;;7.43;1.42;;;19.70;45.90;;;;;;6197683;28;20030;-66
2022/04/10 11:38:17;;;;;;;6.13;1.30;;;19.80;45.80;;;;;;6197025;28;20154;-68
2022/04/10 11:41:17;;;;;;;;;;;19.80;46.40;;;;;;6198203;28;20093;-69
2022/04/10 11:44:18;;;;;;;3.17;1.10;;;19.90;46.20;;;;;;6197293;28;19937;-68
2022/04/10 11:47:21;;;;;;;4.78;1.90;;;20.00;46.00;;;;;;6197320;28;20023;-67
2022/04/10 11:50:23;;;;;;;7.35;2.05;;;19.90;46.30;;;;;;6196807;28;20058;-66
2022/04/10 11:53:30;;;;;;;3.58;1.80;;;19.90;46.30;;;;;;6195969;28;20026;-66
2022/04/10 11:56:30;;;;;;;7.22;2.22;;;19.80;46.00;;;;;;6197352;28;20022;-68
2022/04/10 11:59:34;;;;;;;6.38;1.75;;;19.80;46.60;;;;;;6196862;28;20489;-67
2022/04/10 12:02:35;;;;;;;7.72;1.88;;;19.80;46.10;;;;;;6197073;28;20481;-67
2022/04/10 12:05:36;;;;;;;7.43;1.70;;;19.80;45.90;;;;;;6197056;28;20030;-67
2022/04/10 12:08:37;;;;;;;7.00;1.30;;;19.80;45.80;;;;;;6197196;28;20033;-67
2022/04/10 12:11:39;;;;;;;6.43;1.50;;;19.80;45.90;;;;;;6196778;28;20033;-67
2022/04/10 12:14:40;;;;;;;3.95;1.48;;;19.80;45.80;;;;;;6196622;28;20027;-67
2022/04/10 12:17:40;;;;;;;6.50;1.67;;;19.80;45.90;;;;;;6194925;28;20058;-67
2022/04/10 12:20:43;;;;;;;3.80;1.60;;;19.80;46.20;;;;;;6210348;28;20057;-67
2022/04/10 12:23:45;;;;;;;7.78;2.90;;;19.80;46.30;;;;;;6216072;28;20041;-67
2022/04/10 12:26:46;;;;;;;11.30;3.00;;;19.90;45.80;;;;;;6194639;28;20022;-67
2022/04/10 12:29:47;;;;;;;23.63;7.63;;;19.80;45.80;;;;;;6203813;28;20081;-67
2022/04/10 12:32:48;;;;;;;10.65;2.95;;;19.80;45.80;;;;;;6196340;28;20088;-67
2022/04/10 12:35:49;;;;;;;8.73;3.45;;;19.80;45.90;;;;;;6196143;28;20026;-67
2022/04/10 12:38:51;;;;;;;11.63;3.72;;;19.90;46.10;;;;;;6196127;28;20509;-67
2022/04/10 12:42:01;;;;;;;20.33;7.90;;;19.90;46.10;;;;;;6196388;28;20029;-67
2022/04/10 12:45:08;;;;;;;24.88;8.95;;;19.90;45.70;;;;;;6195755;28;20034;-67
2022/04/10 12:48:24;;;;;;;20.23;7.78;;;20.00;45.30;;;;;;6196237;28;20014;-67
2022/04/10 12:51:25;;;;;;;21.65;8.02;;;20.00;45.90;;;;;;6195643;28;20080;-67
2022/04/10 12:54:35;;;;;;;20.38;6.43;;;20.00;45.50;;;;;;6195950;28;20751;-67
2022/04/10 12:57:36;;;;;;;16.17;6.25;;;20.00;46.00;;;;;;6195550;28;20389;-67
2022/04/10 13:00:44;;;;;;;19.17;6.95;;;20.00;46.40;;;;;;6195692;28;20034;-67
2022/04/10 13:03:48;;;;;;;22.65;7.57;;;20.00;45.80;;;;;;6189028;28;20049;-67
2022/04/10 13:06:51;;;;;;;23.27;8.27;;;20.00;46.20;;;;;;6192412;28;20032;-67
2022/04/10 13:10:04;;;;;;;22.48;7.25;;;20.00;45.80;;;;;;6195322;28;20026;-66
2022/04/10 13:13:08;;;;;;;22.35;8.00;;;19.90;45.80;;;;;;6194992;28;20561;-66
2022/04/10 13:16:12;;;;;;;21.77;7.97;;;19.90;45.80;;;;;;6194163;28;20034;-66
2022/04/10 13:19:19;;;;;;;20.77;7.30;;;19.90;45.80;;;;;;6196653;28;20077;-67
2022/04/10 13:22:20;;;;;;;17.58;7.03;;;19.90;46.00;;;;;;6208985;28;20026;-66
2022/04/10 13:25:21;;;;;;;16.25;6.90;;;19.80;46.00;;;;;;6193364;28;20030;-66
2022/04/10 13:28:21;;;;;;;16.98;6.75;;;19.90;46.40;;;;;;6190779;28;20049;-66
2022/04/10 13:31:22;;;;;;;17.92;7.10;;;19.90;46.50;;;;;;6198323;28;20117;-66
2022/04/10 13:34:24;;;;;;;17.67;7.07;;;19.90;46.00;;;;;;6195622;28;20026;-66
2022/04/10 13:37:29;;;;;;;23.25;7.93;;;19.90;45.80;;;;;;6218116;28;20117;-66
2022/04/10 13:40:31;;;;;;;19.42;7.50;;;19.90;45.80;;;;;;6218018;28;20032;-66
2022/04/10 13:43:32;;;;;;;13.82;5.75;;;19.80;45.80;;;;;;6195646;28;20034;-66
2022/04/10 13:46:33;;;;;;;18.50;6.22;;;19.80;45.80;;;;;;6193735;28;20852;-66
2022/04/10 13:49:33;;;;;;;17.45;6.20;;;19.80;45.70;;;;;;6193777;28;20031;-66
2022/04/10 13:52:34;;;;;;;15.55;6.45;;;19.80;45.80;;;;;;6193362;28;20038;-67
2022/04/10 13:55:35;;;;;;;18.15;6.35;;;19.80;46.00;;;;;;6192963;28;20101;-66
2022/04/10 13:58:35;;;;;;;15.60;6.22;;;19.80;45.90;;;;;;6192972;28;20397;-66
2022/04/10 14:01:36;;;;;;;14.50;5.88;;;19.80;45.80;;;;;;6193327;28;20034;-66
2022/04/10 14:04:36;;;;;;;17.42;6.32;;;19.80;46.10;;;;;;6193101;28;20022;-66
2022/04/10 14:07:37;;;;;;;19.33;6.53;;;19.80;46.00;;;;;;6193409;28;20027;-67
2022/04/10 14:10:37;;;;;;;23.60;6.22;;;19.80;46.20;;;;;;6191695;28;20038;-67
2022/04/10 14:13:38;;;;;;;20.13;6.00;;;19.80;46.30;;;;;;6193262;28;20118;-66
2022/04/10 14:16:39;;;;;;;15.68;6.05;;;19.80;46.10;;;;;;6192593;28;20053;-67
2022/04/10 14:19:39;;;;;;;16.30;5.47;;;19.80;45.80;;;;;;6198067;28;20068;-67
2022/04/10 14:22:40;;;;;;;18.33;6.00;;;19.80;46.20;;;;;;6207908;28;20029;-67
2022/04/10 14:25:40;;;;;;;14.55;4.78;;;19.70;46.00;;;;;;6191561;28;20164;-66
2022/04/10 14:28:41;;;;;;;11.38;4.80;;;19.70;44.70;;;;;;6192094;28;20194;-66
2022/04/10 14:31:46;;;;;;;13.70;4.75;;;19.70;44.80;;;;;;6203792;28;20026;-67
2022/04/10 14:34:46;;;;;;;;;;;19.70;44.90;;;;;;6201120;28;20022;-67
2022/04/10 14:37:47;;;;;;;13.18;4.28;;;19.70;45.00;;;;;;6195070;28;19921;-67
2022/04/10 14:40:48;;;;;;;15.50;5.30;;;19.70;45.20;;;;;;6194843;28;20070;-66
2022/04/10 14:43:49;;;;;;;12.98;4.45;;;19.70;45.40;;;;;;6195850;28;20370;-66
2022/04/10 14:46:49;;;;;;;11.85;4.80;;;19.70;45.40;;;;;;6195259;28;20105;-66
2022/04/10 14:49:50;;;;;;;14.20;4.80;;;19.70;45.50;;;;;;6195341;28;20022;-66
2022/04/10 14:52:50;;;;;;;9.88;4.63;;;19.70;45.50;;;;;;6195155;28;20029;-66
2022/04/10 14:55:51;;;;;;;8.00;4.32;;;19.70;45.50;;;;;;6195683;28;20026;-66
2022/04/10 14:58:51;;;;;;;13.60;4.43;;;19.70;45.50;;;;;;6195245;28;20377;-66
2022/04/10 15:01:52;;;;;;;8.85;4.10;;;19.70;45.50;;;;;;6195663;28;20421;-66
2022/04/10 15:04:52;;;;;;;8.20;3.67;;;19.70;45.40;;;;;;6194982;28;20026;-66
2022/04/10 15:07:59;;;;;;;8.57;4.05;;;19.70;45.50;;;;;;6198283;28;20038;-66
2022/04/10 15:11:00;;;;;;;8.48;3.85;;;19.70;45.90;;;;;;6199832;28;20053;-66
2022/04/10 15:14:00;;;;;;;8.88;4.03;;;19.70;45.50;;;;;;6200231;28;20026;-67
2022/04/10 15:17:01;;;;;;;12.50;4.32;;;19.70;45.50;;;;;;6199791;28;20027;-66
2022/04/10 15:20:03;;;;;;;6.93;3.30;;;19.70;45.50;;;;;;6199754;28;20027;-66
2022/04/10 15:23:04;;;;;;;6.65;3.55;;;19.70;45.50;;;;;;6199653;28;20031;-67
2022/04/10 15:26:04;;;;;;;8.18;3.88;;;19.70;46.30;;;;;;6199454;28;20027;-66
2022/04/10 15:29:05;;;;;;;9.02;3.90;;;19.70;45.50;;;;;;6199289;28;20054;-66
2022/04/10 15:32:06;;;;;;;9.20;3.75;;;19.70;45.50;;;;;;6199481;28;20018;-66
2022/04/10 15:35:07;;;;;;;8.25;3.72;;;19.70;45.40;;;;;;6199647;28;20026;-66
2022/04/10 15:38:08;;;;;;;7.32;3.50;;;19.70;45.50;;;;;;6199251;28;20037;-66
2022/04/10 15:41:09;;;;;;;6.80;3.13;;;19.60;45.40;;;;;;6199752;28;20030;-66
2022/04/10 15:44:11;;;;;;;7.10;3.42;;;19.60;46.10;;;;;;6198994;28;20041;-66
2022/04/10 15:47:11;;;;;;;6.07;3.30;;;19.60;45.40;;;;;;6199330;28;20028;-66
2022/04/10 15:50:12;;;;;;;7.38;3.28;;;19.60;45.30;;;;;;6198832;28;20643;-66
2022/04/10 15:53:13;;;;;;;6.68;3.60;;;19.60;45.40;;;;;;6199229;28;20029;-66